createdAt,value
2023-05-18T00:00:13.069Z,12.97
2023-05-18T00:02:41.609Z,13.02
2023-05-18T00:05:10.619Z,12.92
2023-05-18T00:07:39.654Z,12.98
2023-05-18T00:10:08.502Z,12.88
2023-05-18T00:12:36.606Z,12.76
2023-05-18T00:15:05.067Z,12.68
2023-05-18T00:17:33.943Z,12.70
2023-05-18T00:20:02.054Z,12.69
2023-05-18T00:22:30.425Z,12.64
2023-05-18T00:24:58.351Z,12.64
2023-05-18T00:27:26.338Z,12.57
2023-05-18T00:29:54.795Z,12.57
2023-05-18T00:32:22.783Z,12.65
2023-05-18T00:34:50.840Z,12.60
2023-05-18T00:37:18.823Z,12.66
2023-05-18T00:39:46.859Z,12.53
2023-05-18T00:42:14.792Z,12.57
2023-05-18T00:44:43.017Z,12.61
2023-05-18T00:47:11.879Z,12.56
2023-05-18T00:49:40.221Z,12.50
2023-05-18T00:52:16.534Z,12.61
2023-05-18T00:54:44.525Z,12.63
2023-05-18T00:57:12.458Z,12.65
2023-05-18T00:59:41.336Z,12.66
2023-05-18T01:02:12.425Z,12.61
2023-05-18T01:04:41.668Z,12.66
2023-05-18T01:07:11.404Z,12.63
2023-05-18T01:09:39.703Z,12.66
2023-05-18T01:12:21.420Z,12.66
2023-05-18T01:14:58.207Z,12.69
2023-05-18T01:17:44.311Z,12.62
2023-05-18T01:20:40.327Z,12.53
2023-05-18T01:23:41.778Z,12.41
2023-05-18T01:26:15.505Z,12.52
2023-05-18T01:28:47.145Z,12.52
2023-05-18T01:31:16.677Z,12.55
2023-05-18T01:33:45.208Z,12.58
2023-05-18T01:36:13.626Z,12.57
2023-05-18T01:38:44.385Z,12.54
2023-05-18T01:41:15.217Z,12.53
2023-05-18T01:43:52.511Z,12.47
2023-05-18T01:46:41.384Z,12.53
2023-05-18T01:49:21.178Z,12.46
2023-05-18T01:51:52.089Z,12.54
2023-05-18T01:54:21.812Z,12.33
2023-05-18T01:57:21.434Z,12.51
2023-05-18T01:59:51.445Z,12.48
2023-05-18T02:02:19.885Z,12.55
2023-05-18T02:04:48.013Z,12.54
2023-05-18T02:07:16.080Z,12.55
2023-05-18T02:09:47.024Z,12.55
2023-05-18T02:12:15.016Z,12.56
2023-05-18T02:14:42.952Z,12.61
2023-05-18T02:17:12.051Z,12.67
2023-05-18T02:19:40.241Z,12.69
2023-05-18T02:22:08.428Z,12.74
2023-05-18T02:24:37.341Z,12.75
2023-05-18T02:27:06.122Z,12.65
2023-05-18T02:29:33.985Z,12.73
2023-05-18T02:32:01.877Z,12.70
2023-05-18T02:34:33.268Z,12.70
2023-05-18T02:37:04.195Z,12.68
2023-05-18T02:39:34.130Z,12.64
2023-05-18T02:42:02.111Z,12.58
2023-05-18T02:44:30.165Z,12.57
2023-05-18T02:46:58.178Z,12.67
2023-05-18T02:49:27.054Z,12.64
2023-05-18T02:54:22.226Z,12.58
2023-05-18T02:56:50.726Z,12.38
2023-05-18T02:59:26.701Z,12.39
2023-05-18T03:01:54.761Z,12.45
2023-05-18T03:04:26.241Z,12.38
2023-05-18T03:06:57.576Z,12.49
2023-05-18T03:09:25.864Z,12.44
2023-05-18T03:11:55.461Z,12.36
2023-05-18T03:14:23.872Z,12.43
2023-05-18T03:16:54.610Z,12.46
2023-05-18T03:19:25.058Z,12.44
2023-05-18T03:21:53.747Z,12.43
2023-05-18T03:24:21.876Z,12.40
2023-05-18T03:26:54.398Z,12.52
2023-05-18T03:29:23.708Z,12.57
2023-05-18T03:31:53.499Z,12.64
2023-05-18T03:34:21.571Z,12.63
2023-05-18T03:36:52.726Z,12.64
2023-05-18T03:39:21.782Z,12.57
2023-05-18T03:41:49.884Z,12.69
2023-05-18T03:44:18.865Z,12.69
2023-05-18T03:46:47.274Z,12.63
2023-05-18T03:49:15.277Z,12.73
2023-05-18T03:51:44.403Z,12.74
2023-05-18T03:54:12.490Z,12.69
2023-05-18T03:56:41.336Z,12.74
2023-05-18T03:59:09.592Z,12.74
2023-05-18T04:01:38.441Z,12.70
2023-05-18T04:04:07.595Z,12.71
2023-05-18T04:06:35.930Z,12.75
2023-05-18T04:09:05.075Z,12.67
2023-05-18T04:11:33.175Z,12.69
2023-05-18T04:14:01.299Z,12.70
2023-05-18T04:16:29.534Z,12.76
2023-05-18T04:18:57.642Z,12.83
2023-05-18T04:21:25.693Z,12.86
2023-05-18T04:23:53.861Z,12.89
2023-05-18T04:26:22.398Z,12.88
2023-05-18T04:28:52.383Z,12.86
2023-05-18T04:31:20.830Z,12.84
2023-05-18T04:33:53.201Z,12.88
2023-05-18T04:36:21.624Z,12.81
2023-05-18T04:38:51.074Z,12.83
2023-05-18T04:41:23.106Z,12.86
2023-05-18T04:43:51.474Z,12.82
2023-05-18T04:46:22.594Z,12.82
2023-05-18T04:48:51.526Z,12.88
2023-05-18T04:51:23.022Z,12.93
2023-05-18T04:53:51.530Z,12.99
2023-05-18T04:56:23.431Z,13.01
2023-05-18T04:58:51.812Z,13.05
2023-05-18T05:01:19.833Z,13.06
2023-05-18T05:03:49.625Z,13.08
2023-05-18T05:06:17.770Z,13.01
2023-05-18T05:08:46.251Z,12.99
2023-05-18T05:11:14.344Z,13.08
2023-05-18T05:13:42.457Z,13.07
2023-05-18T05:16:11.077Z,13.06
2023-05-18T05:18:39.115Z,13.05
2023-05-18T05:21:07.196Z,13.07
2023-05-18T05:23:36.087Z,13.14
2023-05-18T05:26:04.461Z,13.15
2023-05-18T05:28:32.778Z,13.26
2023-05-18T05:31:01.150Z,13.22
2023-05-18T05:33:30.159Z,13.12
2023-05-18T05:35:58.127Z,13.25
2023-05-18T05:38:26.592Z,13.01
2023-05-18T05:40:54.720Z,13.19
2023-05-18T05:43:22.822Z,13.23
2023-05-18T05:45:51.756Z,13.16
2023-05-18T05:48:20.116Z,13.20
2023-05-18T05:50:48.568Z,13.20
2023-05-18T05:53:19.968Z,13.24
2023-05-18T05:55:49.794Z,13.14
2023-05-18T05:58:19.101Z,13.17
2023-05-18T06:00:52.546Z,13.10
2023-05-18T06:03:21.671Z,12.93
2023-05-18T06:05:50.531Z,13.00
2023-05-18T06:08:21.044Z,12.92
2023-05-18T06:10:49.203Z,12.99
2023-05-18T06:13:17.873Z,13.01
2023-05-18T06:15:51.744Z,12.98
2023-05-18T06:18:19.888Z,12.98
2023-05-18T06:20:49.385Z,13.05
2023-05-18T06:23:23.125Z,13.11
2023-05-18T06:26:03.447Z,13.17
2023-05-18T06:28:46.688Z,13.18
2023-05-18T06:31:30.321Z,13.18
2023-05-18T06:34:22.049Z,13.25
2023-05-18T06:36:50.663Z,13.27
2023-05-18T06:39:18.759Z,13.26
2023-05-18T06:41:47.102Z,13.27
2023-05-18T06:44:22.937Z,13.31
2023-05-18T06:47:07.429Z,13.27
2023-05-18T06:49:35.508Z,13.25
2023-05-18T06:52:04.366Z,13.25
2023-05-18T06:54:33.072Z,13.24
2023-05-18T06:57:01.606Z,13.29
2023-05-18T06:59:30.312Z,13.31
2023-05-18T07:01:58.508Z,13.30
2023-05-18T07:04:27.273Z,13.32
2023-05-18T07:06:56.459Z,13.40
2023-05-18T07:09:25.823Z,13.42
2023-05-18T07:11:54.049Z,13.42
2023-05-18T07:14:22.039Z,13.44
2023-05-18T07:16:50.065Z,13.41
2023-05-18T07:19:21.433Z,13.46
2023-05-18T07:21:49.643Z,13.52
2023-05-18T07:24:17.668Z,13.52
2023-05-18T07:26:45.790Z,13.51
2023-05-18T07:29:13.772Z,13.53
2023-05-18T07:31:42.225Z,13.48
2023-05-18T07:34:10.361Z,13.40
2023-05-18T07:36:38.591Z,13.49
2023-05-18T07:39:06.838Z,13.47
2023-05-18T07:41:35.140Z,13.39
2023-05-18T07:44:03.088Z,13.40
2023-05-18T07:46:31.695Z,13.37
2023-05-18T07:49:00.848Z,13.35
2023-05-18T07:51:29.983Z,13.25
2023-05-18T07:53:58.396Z,13.09
2023-05-18T07:56:26.431Z,13.17
2023-05-18T07:58:54.617Z,13.26
2023-05-18T08:01:27.455Z,13.26
2023-05-18T08:03:55.481Z,13.26
2023-05-18T08:06:24.375Z,13.11
2023-05-18T08:08:52.453Z,13.22
2023-05-18T08:11:22.142Z,13.21
2023-05-18T08:13:50.616Z,13.20
2023-05-18T08:16:18.658Z,13.26
2023-05-18T08:18:46.730Z,13.11
2023-05-18T08:21:14.905Z,12.99
2023-05-18T08:23:42.958Z,13.05
2023-05-18T08:26:14.170Z,13.13
2023-05-18T08:28:42.724Z,13.13
2023-05-18T08:31:12.685Z,13.18
2023-05-18T08:33:40.957Z,13.24
2023-05-18T08:36:09.272Z,12.95
2023-05-18T08:38:37.299Z,13.10
2023-05-18T08:41:21.512Z,13.12
2023-05-18T08:44:21.311Z,13.08
2023-05-18T08:46:53.158Z,13.08
2023-05-18T08:49:22.363Z,12.87
2023-05-18T08:51:57.268Z,12.87
2023-05-18T08:54:25.171Z,12.94
2023-05-18T08:56:54.117Z,12.80
2023-05-18T08:59:27.870Z,12.75
2023-05-18T09:01:56.304Z,12.77
2023-05-18T09:04:24.507Z,12.75
2023-05-18T09:06:54.775Z,12.79
2023-05-18T09:09:24.474Z,12.79
2023-05-18T09:11:53.331Z,12.89
2023-05-18T09:14:25.990Z,12.89
2023-05-18T09:16:54.721Z,12.98
2023-05-18T09:19:25.018Z,13.05
2023-05-18T09:21:53.199Z,13.11
2023-05-18T09:24:24.400Z,13.19
2023-05-18T09:26:53.462Z,13.22
2023-05-18T09:29:22.510Z,13.27
2023-05-18T09:31:51.097Z,13.36
2023-05-18T09:34:19.686Z,13.39
2023-05-18T09:36:53.076Z,13.32
2023-05-18T09:39:21.230Z,13.28
2023-05-18T09:41:57.073Z,13.38
2023-05-18T09:44:37.446Z,13.42
2023-05-18T09:47:10.875Z,13.39
2023-05-18T09:49:40.898Z,13.42
2023-05-18T09:52:09.677Z,13.42
2023-05-18T09:54:38.004Z,13.48
2023-05-18T09:57:10.423Z,13.28
2023-05-18T09:59:39.480Z,13.42
2023-05-18T10:02:09.213Z,13.43
2023-05-18T10:04:42.166Z,13.42
2023-05-18T10:07:15.298Z,13.50
2023-05-18T10:09:45.531Z,13.35
2023-05-18T10:12:15.951Z,13.01
2023-05-18T10:14:45.798Z,12.80
2023-05-18T10:17:17.028Z,12.97
2023-05-18T10:19:47.105Z,13.10
2023-05-18T10:22:18.098Z,13.21
2023-05-18T10:24:50.489Z,13.22
2023-05-18T10:27:24.598Z,12.75
2023-05-18T10:29:54.855Z,12.16
2023-05-18T10:32:25.718Z,12.31
2023-05-18T10:34:55.523Z,12.36
2023-05-18T10:37:24.828Z,12.30
2023-05-18T10:39:56.256Z,12.24
2023-05-18T10:42:26.422Z,12.10
2023-05-18T10:44:55.333Z,12.18
2023-05-18T10:47:24.869Z,12.37
2023-05-18T10:49:53.982Z,12.36
2023-05-18T10:52:22.431Z,12.12
2023-05-18T10:54:50.488Z,12.18
2023-05-18T10:57:21.138Z,12.11
2023-05-18T10:59:49.123Z,12.02
2023-05-18T11:02:18.946Z,11.92
2023-05-18T11:04:53.341Z,11.93
2023-05-18T11:07:22.298Z,12.02
2023-05-18T11:09:50.522Z,12.17
2023-05-18T11:12:18.489Z,12.09
2023-05-18T11:14:51.757Z,12.16
2023-05-18T11:17:27.079Z,12.12
2023-05-18T11:20:06.947Z,12.40
2023-05-18T11:23:04.105Z,12.31
2023-05-18T11:25:34.924Z,12.62
2023-05-18T11:28:16.783Z,12.74
2023-05-18T11:30:48.556Z,12.72
2023-05-18T11:33:25.545Z,12.81
2023-05-18T11:36:04.144Z,12.89
2023-05-18T11:38:54.791Z,12.97
2023-05-18T11:41:34.973Z,12.88
2023-05-18T11:44:21.754Z,13.04
2023-05-18T11:47:00.366Z,12.96
2023-05-18T11:49:31.208Z,12.93
2023-05-18T11:52:21.367Z,12.90
2023-05-18T11:54:57.344Z,12.91
2023-05-18T11:57:27.308Z,13.00
2023-05-18T11:59:59.568Z,13.13
2023-05-18T12:02:32.270Z,13.24
2023-05-18T12:05:04.881Z,13.30
2023-05-18T12:07:34.096Z,13.34
2023-05-18T12:10:04.586Z,13.30
2023-05-18T12:12:34.612Z,13.43
2023-05-18T12:15:07.775Z,13.48
2023-05-18T12:17:45.858Z,13.60
2023-05-18T12:20:15.231Z,13.65
2023-05-18T12:22:52.933Z,13.60
2023-05-18T12:25:41.782Z,13.63
2023-05-18T12:28:09.961Z,13.65
2023-05-18T12:30:39.884Z,13.65
2023-05-18T12:33:08.213Z,13.62
2023-05-18T12:35:36.611Z,13.67
2023-05-18T12:38:04.639Z,13.60
2023-05-18T12:40:44.602Z,13.56
2023-05-18T12:43:13.654Z,13.51
2023-05-18T12:45:45.325Z,13.54
2023-05-18T12:48:15.420Z,13.47
2023-05-18T12:50:48.179Z,13.24
2023-05-18T12:53:17.778Z,13.41
2023-05-18T12:55:46.279Z,13.11
2023-05-18T12:58:19.488Z,13.12
2023-05-18T13:00:49.263Z,13.05
2023-05-18T13:03:20.740Z,13.09
2023-05-18T13:06:05.119Z,13.14
2023-05-18T13:08:35.746Z,13.18
2023-05-18T13:25:02.730Z,13.27
2023-05-18T13:54:51.758Z,12.96
2023-05-18T14:03:00.324Z,12.56
2023-05-18T14:13:41.308Z,12.60
2023-05-18T14:51:18.643Z,12.68
2023-05-18T15:01:54.104Z,12.83
2023-05-18T15:07:05.733Z,13.10
2023-05-18T15:09:34.315Z,13.18
2023-05-18T15:25:52.208Z,13.33
2023-05-18T15:36:27.673Z,12.97
2023-05-18T15:57:49.525Z,12.88
2023-05-18T16:00:18.962Z,12.98
2023-05-18T16:05:31.883Z,13.09
2023-05-18T16:43:21.451Z,13.03
2023-05-18T16:48:36.392Z,12.73
2023-05-18T16:51:15.428Z,12.72
2023-05-18T17:07:18.478Z,12.76
2023-05-18T17:23:21.674Z,12.74
2023-05-18T17:42:09.357Z,12.40
2023-05-18T17:58:12.877Z,12.17
2023-05-18T18:17:05.374Z,12.35
2023-05-18T18:19:34.645Z,12.39
2023-05-18T18:22:03.678Z,12.26
2023-05-18T18:24:32.722Z,11.97
2023-05-18T18:27:03.260Z,12.09
2023-05-18T18:29:31.890Z,12.10
2023-05-18T18:32:00.519Z,12.05
2023-05-18T18:34:29.578Z,12.00
2023-05-18T18:36:59.206Z,12.09
2023-05-18T18:39:28.608Z,12.09
2023-05-18T18:41:57.579Z,12.11
2023-05-18T18:44:26.323Z,12.14
2023-05-18T18:46:55.078Z,12.14
2023-05-18T18:49:23.480Z,12.19
2023-05-18T18:51:53.481Z,12.23
2023-05-18T18:54:24.302Z,12.22
2023-05-18T18:56:53.186Z,12.04
2023-05-18T18:59:21.720Z,12.07
2023-05-18T19:01:50.348Z,12.00
2023-05-18T19:04:20.854Z,11.95
2023-05-18T19:06:49.518Z,12.01
2023-05-18T19:09:18.183Z,12.05
2023-05-18T19:11:46.818Z,12.04
2023-05-18T19:14:15.438Z,11.90
2023-05-18T19:16:44.185Z,11.75
2023-05-18T19:19:12.831Z,11.56
2023-05-18T19:21:41.376Z,11.73
2023-05-18T19:24:09.881Z,11.87
2023-05-18T19:26:38.577Z,11.91
2023-05-18T19:29:07.268Z,11.95
2023-05-18T19:31:37.463Z,11.96
2023-05-18T19:34:06.106Z,11.95
2023-05-18T19:36:34.647Z,12.00
2023-05-18T19:39:05.880Z,11.88
2023-05-18T19:41:34.452Z,11.70
2023-05-18T19:44:03.381Z,11.79
2023-05-18T19:46:31.661Z,11.87
2023-05-18T19:49:00.164Z,11.84
2023-05-18T19:51:29.071Z,11.86
2023-05-18T19:53:57.527Z,11.89
2023-05-18T19:56:26.225Z,11.83
2023-05-18T19:58:54.962Z,11.72
2023-05-18T20:01:25.089Z,11.78
2023-05-18T20:03:53.683Z,11.85
2023-05-18T20:06:21.943Z,11.90
2023-05-18T20:08:50.178Z,11.86
2023-05-18T20:11:18.994Z,11.85
2023-05-18T20:13:47.062Z,11.93
2023-05-18T20:16:15.917Z,11.97
2023-05-18T20:18:46.131Z,11.92
2023-05-18T20:21:14.306Z,11.99
2023-05-18T20:23:42.704Z,11.99
2023-05-18T20:26:11.503Z,12.03
2023-05-18T20:28:39.952Z,11.98
2023-05-18T20:31:08.107Z,12.05
2023-05-18T20:33:37.190Z,12.09
2023-05-18T20:36:07.101Z,11.95
2023-05-18T20:38:36.029Z,11.97
2023-05-18T20:41:04.287Z,11.97
2023-05-18T20:43:32.601Z,11.85
2023-05-18T20:46:00.729Z,11.96
2023-05-18T20:48:29.448Z,11.96
2023-05-18T20:50:57.884Z,11.98
2023-05-18T20:53:26.605Z,11.99
2023-05-18T20:55:54.928Z,12.01
2023-05-18T20:58:23.318Z,11.83
2023-05-18T21:00:52.364Z,11.73
2023-05-18T21:03:20.539Z,11.78
2023-05-18T21:05:52.152Z,11.79
2023-05-18T21:08:20.326Z,11.84
2023-05-18T21:10:48.167Z,11.87
2023-05-18T21:13:16.216Z,11.92
2023-05-18T21:15:44.840Z,11.89
2023-05-18T21:18:14.465Z,11.96
2023-05-18T21:20:44.760Z,11.92
2023-05-18T21:23:13.032Z,11.85
2023-05-18T21:25:41.603Z,11.63
2023-05-18T21:28:10.191Z,11.62
2023-05-18T21:30:38.701Z,11.77
2023-05-18T21:33:07.012Z,11.86
2023-05-18T21:35:35.732Z,11.92
2023-05-18T21:38:03.971Z,11.92
2023-05-18T21:40:32.417Z,11.90
2023-05-18T21:43:01.056Z,11.68
2023-05-18T21:45:30.320Z,11.73
2023-05-18T21:47:58.509Z,11.79
2023-05-18T21:50:28.030Z,11.81
2023-05-18T21:52:56.749Z,11.81
2023-05-18T21:55:27.246Z,11.81
2023-05-18T21:57:55.615Z,11.75
2023-05-18T22:00:25.269Z,11.72
2023-05-18T22:02:53.305Z,11.66
2023-05-18T22:05:22.101Z,11.64
2023-05-18T22:07:50.402Z,11.69
2023-05-18T22:10:18.536Z,11.76
2023-05-18T22:12:46.933Z,11.81
2023-05-18T22:15:15.290Z,11.81
2023-05-18T22:17:43.403Z,11.80
2023-05-18T22:20:12.127Z,11.79
2023-05-18T22:22:41.952Z,11.77
2023-05-18T22:25:10.041Z,11.51
2023-05-18T22:27:39.092Z,11.33
2023-05-18T22:30:09.216Z,11.48
2023-05-18T22:32:47.958Z,11.53
2023-05-18T22:35:16.737Z,11.60
2023-05-18T22:37:44.599Z,11.67
2023-05-18T22:40:13.071Z,11.49
2023-05-18T22:42:41.247Z,11.38
2023-05-18T22:45:10.201Z,11.28
2023-05-18T22:47:39.568Z,11.04
2023-05-18T22:50:08.404Z,10.91
2023-05-18T22:52:36.929Z,11.18
2023-05-18T22:55:08.949Z,11.18
2023-05-18T22:57:37.064Z,11.13
2023-05-18T23:00:06.477Z,11.31
2023-05-18T23:02:34.767Z,11.42
2023-05-18T23:05:03.310Z,11.41
2023-05-18T23:07:32.633Z,11.36
2023-05-18T23:10:00.710Z,11.34
2023-05-18T23:12:30.583Z,11.38
2023-05-18T23:15:02.776Z,11.42
2023-05-18T23:17:39.077Z,11.44
2023-05-18T23:20:07.865Z,11.51
2023-05-18T23:22:35.940Z,11.54
2023-05-18T23:25:08.836Z,11.55
2023-05-18T23:27:37.114Z,11.61
2023-05-18T23:30:05.648Z,11.60
2023-05-18T23:32:35.579Z,11.56
2023-05-18T23:35:05.303Z,11.41
2023-05-18T23:37:33.608Z,11.45
2023-05-18T23:40:02.957Z,11.33
2023-05-18T23:42:31.933Z,11.13
2023-05-18T23:45:00.244Z,11.18
2023-05-18T23:47:28.413Z,11.32
2023-05-18T23:49:57.300Z,11.44
2023-05-18T23:52:28.265Z,11.55
2023-05-18T23:54:58.826Z,11.52
2023-05-18T23:57:27.013Z,11.55
2023-05-18T23:59:56.547Z,11.59
